Terminal Aerodrome Forecast
Issued by NWS Amarillo, TX

Home | Current Version | Previous Version | Text Only | Print | Product List | Glossary On
Versions: 1 2 3 4 5 6 7 8 9 10 11 12 13 14 15
000
FTUS44 KAMA 252300
TAFDHT
TAF
KDHT 252336Z 2600/2624 20011KT P6SM FEW110
     FM261400 25010KT P6SM SCT120
     FM262000 13010KT P6SM SCT110=

USA.gov is the U.S. government's official web portal to all federal, state and local government web resources and services.